»·PEaware :: JBU717 KPDX-KGPI

JBU717 :: KPDX-KGPI

FLIGHT INFORMATION

Flight Status: Arrived
Operator:
JetBlue Airways
More flights by this operator :: More flights under this callsign
Pilot: Ty S. (2873)
Aircraft: AIRBUS A321
(A321)
More flights by this aircraft type
Origin: KPDX Portland Intl
United States
Destination: KGPI Glacier Park Intl
United States
More flights between these airports :: More routes between these airports
Route: LAVAA6 LAVAA JOLEK
File this flight plan on PilotEdge
Remarks: RMK / SIMBRIEF
Altitude:
(Current/Filed)
29,000ft
Speed:
(Current/Filed)
416kts
Departed: 08-Mar-20 10:51 AM
Arrived: 08-Mar-20 11:51 AM
Distance/Time
Traveled:
378nm/1:00
Distance/Time
To Go:
Arrived

Flight Plot

Page will automatically refresh every two minutes.

Flight plan parsing failed; only flown route is shown


Map Options




Map Legend


Flown Route
Filed Route
Departure Airport
Arrival Airport
Navaid (VOR, NDB)
Fix

Horizontal Profiles

Position Reports

Time Latitude Longitude Heading Altitude Ground
Speed
08-Mar-20 10:32 45.588587 -122.596942 4 38ft 0kts
08-Mar-20 10:33 45.588587 -122.596942 4 38ft 0kts
08-Mar-20 10:34 45.588587 -122.596942 4 38ft 0kts
08-Mar-20 10:35 45.588587 -122.596942 4 38ft 0kts
08-Mar-20 10:36 45.588587 -122.596942 4 38ft 0kts
08-Mar-20 10:37 45.588587 -122.596942 4 38ft 0kts
08-Mar-20 10:38 45.588587 -122.596942 4 38ft 0kts
08-Mar-20 10:39 45.588587 -122.596942 4 38ft 0kts
08-Mar-20 10:40 45.588587 -122.596942 4 38ft 0kts
08-Mar-20 10:41 45.588587 -122.596942 4 38ft 0kts
08-Mar-20 10:42 45.588475 -122.596956 4 38ft 2kts
08-Mar-20 10:43 45.587878 -122.597026 4 38ft 2kts
08-Mar-20 10:44 45.587642 -122.596852 298 38ft 0kts
08-Mar-20 10:45 45.587642 -122.596852 298 38ft 0kts
08-Mar-20 10:46 45.587642 -122.596852 298 38ft 0kts
08-Mar-20 10:47 45.589570 -122.601598 330 38ft 16kts
08-Mar-20 10:48 45.592217 -122.598422 31 38ft 10kts
08-Mar-20 10:49 45.594410 -122.595645 36 38ft 11kts
08-Mar-20 10:50 45.586382 -122.574002 118 55ft 168kts
08-Mar-20 10:51 45.573072 -122.511874 98 2312ft 177kts
08-Mar-20 10:52 45.560119 -122.428946 104 3439ft 252kts
08-Mar-20 10:53 45.546330 -122.325638 73 6078ft 274kts
08-Mar-20 10:54 45.595103 -122.243110 46 8699ft 285kts
08-Mar-20 10:55 45.649498 -122.155081 58 10674ft 319kts
08-Mar-20 10:56 45.691556 -122.028872 66 11608ft 385kts
08-Mar-20 10:57 45.738407 -121.882656 66 13488ft 415kts
08-Mar-20 10:58 45.792051 -121.731611 62 15607ft 432kts
08-Mar-20 10:59 45.848976 -121.574956 63 17556ft 449kts
08-Mar-20 11:00 45.907858 -121.411655 62 19343ft 465kts
08-Mar-20 11:01 45.968340 -121.242542 63 20947ft 480kts
08-Mar-20 11:02 46.030514 -121.067589 63 22298ft 496kts
08-Mar-20 11:03 46.093230 -120.890247 62 24528ft 486kts
08-Mar-20 11:04 46.153591 -120.719846 62 25771ft 495kts
08-Mar-20 11:05 46.217706 -120.536613 62 26892ft 505kts
08-Mar-20 11:06 46.281562 -120.352429 62 27842ft 514kts
08-Mar-20 11:07 46.345282 -120.166799 63 28634ft 522kts
08-Mar-20 11:08 46.410359 -119.976273 63 29093ft 528kts
08-Mar-20 11:09 46.475456 -119.784443 63 29108ft 529kts
08-Mar-20 11:10 46.540346 -119.591800 63 29109ft 529kts
08-Mar-20 11:11 46.604809 -119.398998 63 29109ft 529kts
08-Mar-20 11:12 46.665217 -119.216650 64 29109ft 528kts
08-Mar-20 11:13 46.729123 -119.022478 64 29109ft 528kts
08-Mar-20 11:14 46.792710 -118.828079 64 29100ft 529kts
08-Mar-20 11:15 46.855652 -118.634161 64 29080ft 528kts
08-Mar-20 11:16 46.918473 -118.439216 64 29064ft 527kts
08-Mar-20 11:17 46.978544 -118.251140 65 29051ft 525kts
08-Mar-20 11:18 47.040330 -118.056082 65 29026ft 524kts
08-Mar-20 11:19 47.100042 -117.866433 65 29006ft 523kts
08-Mar-20 11:20 47.157162 -117.685404 65 29007ft 507kts
08-Mar-20 11:21 47.216123 -117.495837 65 29009ft 506kts
08-Mar-20 11:22 47.273912 -117.308183 66 29015ft 506kts
08-Mar-20 11:23 47.332080 -117.117390 66 29026ft 515kts
08-Mar-20 11:24 47.391488 -116.921381 66 29032ft 521kts
08-Mar-20 11:25 47.450147 -116.726589 65 29030ft 520kts
08-Mar-20 11:26 47.508690 -116.530636 65 29030ft 520kts
08-Mar-20 11:27 47.565962 -116.337357 66 29026ft 519kts
08-Mar-20 11:28 47.623611 -116.140724 66 28829ft 510kts
08-Mar-20 11:29 47.679606 -115.948682 66 25535ft 505kts
08-Mar-20 11:30 47.734963 -115.757394 66 22074ft 497kts
08-Mar-20 11:31 47.788036 -115.572606 66 19418ft 475kts
08-Mar-20 11:32 47.838440 -115.395810 66 16964ft 454kts
08-Mar-20 11:33 47.887665 -115.229641 54 14477ft 438kts
08-Mar-20 11:34 47.991639 -115.155440 15 11972ft 414kts
08-Mar-20 11:35 48.065396 -115.036265 75 9951ft 391kts
08-Mar-20 11:36 48.090210 -114.888904 76 9211ft 342kts
08-Mar-20 11:37 48.111675 -114.767983 76 8998ft 289kts
08-Mar-20 11:38 48.131123 -114.657582 77 9049ft 270kts
08-Mar-20 11:39 48.157868 -114.554162 42 7937ft 267kts
08-Mar-20 11:40 48.223935 -114.510058 21 7666ft 248kts
08-Mar-20 11:41 48.288440 -114.471405 21 7666ft 247kts
08-Mar-20 11:42 48.352739 -114.432592 21 7564ft 248kts
08-Mar-20 11:44 48.407060 -114.396395 36 6839ft 171kts
08-Mar-20 11:45 48.435547 -114.343816 71 6112ft 162kts
08-Mar-20 11:46 48.441797 -114.279346 101 5770ft 153kts
08-Mar-20 11:47 48.427085 -114.220814 123 5760ft 149kts
08-Mar-20 11:48 48.395094 -114.186932 173 5224ft 145kts
08-Mar-20 11:49 48.356921 -114.207699 212 4431ft 150kts
08-Mar-20 11:50 48.322834 -114.242622 212 3122ft 145kts
08-Mar-20 11:51 48.306625 -114.259063 153 2986ft 19kts
08-Mar-20 11:52 48.308106 -114.255144 114 2986ft 8kts
08-Mar-20 11:53 48.307553 -114.253748 127 2986ft 0kts

Navigation Log

Ident Type
Flight plan parsing failed, navigation log unavailable